createdAt,value
2019-01-14T00:00:26.253Z,-1.36
2019-01-14T00:04:29.313Z,-1.39
2019-01-14T00:08:30.835Z,-1.38
2019-01-14T00:12:31.915Z,-1.36
2019-01-14T00:16:33.380Z,-1.36
2019-01-14T00:20:34.450Z,-1.38
2019-01-14T00:24:35.546Z,-1.36
2019-01-14T00:28:36.886Z,-1.37
2019-01-14T00:32:38.459Z,-1.37
2019-01-14T00:36:39.619Z,-1.34
2019-01-14T00:40:40.640Z,-1.33
2019-01-14T00:44:41.688Z,-1.34
2019-01-14T00:48:42.644Z,-1.36
2019-01-14T00:52:44.030Z,-1.33
2019-01-14T00:56:45.136Z,-1.35
2019-01-14T01:00:46.472Z,-1.34
2019-01-14T01:04:48.087Z,-1.33
2019-01-14T01:08:50.231Z,-1.34
2019-01-14T01:12:51.431Z,-1.34
2019-01-14T01:16:52.565Z,-1.34
2019-01-14T01:20:53.723Z,-1.35
2019-01-14T01:24:55.811Z,-1.36
2019-01-14T01:28:56.847Z,-1.35
2019-01-14T01:32:57.891Z,-1.37
2019-01-14T01:36:58.841Z,-1.35
2019-01-14T01:40:59.884Z,-1.38
2019-01-14T01:45:00.898Z,-1.42
2019-01-14T01:49:02.268Z,-1.40
2019-01-14T01:53:03.472Z,-1.41
2019-01-14T01:57:04.955Z,-1.38
2019-01-14T02:01:06.248Z,-1.40
2019-01-14T02:05:10.127Z,-1.40
2019-01-14T02:09:11.545Z,-1.42
2019-01-14T02:13:12.819Z,-1.44
2019-01-14T02:17:14.039Z,-1.41
2019-01-14T02:21:16.159Z,-1.43
2019-01-14T02:25:18.204Z,-1.46
2019-01-14T02:29:19.519Z,-1.52
2019-01-14T02:33:20.522Z,-1.54
2019-01-14T02:37:22.019Z,-1.53
2019-01-14T02:41:22.983Z,-1.54
2019-01-14T02:45:24.045Z,-1.52
2019-01-14T02:49:25.014Z,-1.50
2019-01-14T02:53:26.860Z,-1.48
2019-01-14T02:57:28.386Z,-1.49
2019-01-14T03:01:30.114Z,-1.47
2019-01-14T03:05:31.082Z,-1.46
2019-01-14T03:09:32.319Z,-1.47
2019-01-14T03:13:33.494Z,-1.47
2019-01-14T03:17:34.751Z,-1.48
2019-01-14T03:21:35.914Z,-1.50
2019-01-14T03:25:40.194Z,-1.51
2019-01-14T03:29:41.456Z,-1.55
2019-01-14T03:33:42.456Z,-1.65
2019-01-14T03:37:43.519Z,-1.66
2019-01-14T03:41:44.527Z,-1.69
2019-01-14T03:45:45.469Z,-1.69
2019-01-14T03:49:46.502Z,-1.67
2019-01-14T03:53:47.487Z,-1.67
2019-01-14T03:57:48.703Z,-1.70
2019-01-14T04:01:49.693Z,-1.69
2019-01-14T04:05:50.711Z,-1.65
2019-01-14T04:09:51.672Z,-1.63
2019-01-14T04:13:52.867Z,-1.63
2019-01-14T04:17:54.035Z,-1.67
2019-01-14T04:21:55.079Z,-1.69
2019-01-14T04:25:57.685Z,-1.66
2019-01-14T04:30:03.018Z,-1.68
2019-01-14T04:34:04.291Z,-1.70
2019-01-14T04:38:05.581Z,-1.73
2019-01-14T04:42:07.107Z,-1.71
2019-01-14T04:46:08.697Z,-1.76
2019-01-14T04:50:11.914Z,-1.73
2019-01-14T04:54:13.219Z,-1.76
2019-01-14T04:58:14.445Z,-1.74
2019-01-14T05:02:16.057Z,-1.74
2019-01-14T05:06:17.587Z,-1.76
2019-01-14T05:10:19.310Z,-1.84
2019-01-14T05:14:20.600Z,-1.84
2019-01-14T05:18:22.279Z,-1.86
2019-01-14T05:22:23.514Z,-1.92
2019-01-14T05:26:24.812Z,-1.96
2019-01-14T05:30:25.795Z,-1.98
2019-01-14T05:34:26.864Z,-1.99
2019-01-14T05:38:28.388Z,-2.00
2019-01-14T05:42:29.643Z,-1.97
2019-01-14T05:46:30.785Z,-1.98
2019-01-14T05:50:31.972Z,-2.00
2019-01-14T05:54:33.163Z,-1.96
2019-01-14T05:58:34.441Z,-1.99
2019-01-14T06:02:35.711Z,-1.99
2019-01-14T06:06:36.916Z,-2.00
2019-01-14T06:10:38.107Z,-1.96
2019-01-14T06:14:39.361Z,-1.96
2019-01-14T06:18:40.756Z,-1.96
2019-01-14T06:22:43.354Z,-2.02
2019-01-14T06:26:44.455Z,-1.98
2019-01-14T06:30:45.706Z,-1.98
2019-01-14T06:34:47.134Z,-2.00
2019-01-14T06:38:48.314Z,-1.99
2019-01-14T06:42:49.650Z,-1.98
2019-01-14T06:46:51.011Z,-1.97
2019-01-14T06:50:52.335Z,-1.97
2019-01-14T06:54:53.706Z,-1.98
2019-01-14T06:58:55.043Z,-1.98
2019-01-14T07:02:56.466Z,-2.00
2019-01-14T07:06:57.767Z,-1.99
2019-01-14T07:10:59.067Z,-1.99
2019-01-14T07:15:00.294Z,-1.99
2019-01-14T07:19:01.541Z,-1.98
2019-01-14T07:23:02.797Z,-2.05
2019-01-14T07:27:05.568Z,-2.03
2019-01-14T07:31:06.750Z,-2.00
2019-01-14T07:35:07.931Z,-1.98
2019-01-14T07:39:10.209Z,-1.99
2019-01-14T07:43:11.494Z,-2.01
2019-01-14T07:47:12.697Z,-2.01
2019-01-14T07:51:13.885Z,-2.00
2019-01-14T07:55:15.081Z,-1.97
2019-01-14T07:59:16.381Z,-1.97
2019-01-14T08:03:17.561Z,-1.93
2019-01-14T08:07:19.345Z,-1.92
2019-01-14T08:11:20.544Z,-1.88
2019-01-14T08:15:22.964Z,-1.88
2019-01-14T08:19:24.194Z,-1.86
2019-01-14T08:23:25.416Z,-1.86
2019-01-14T08:27:26.559Z,-1.81
2019-01-14T08:31:28.981Z,-1.81
2019-01-14T08:35:29.961Z,-1.79
2019-01-14T08:39:31.011Z,-1.75
2019-01-14T08:43:34.524Z,-1.73
2019-01-14T08:47:35.543Z,-1.72
2019-01-14T08:51:36.584Z,-1.71
2019-01-14T08:55:37.609Z,-1.72
2019-01-14T08:59:38.726Z,-1.73
2019-01-14T09:03:41.288Z,-1.80
2019-01-14T09:07:42.314Z,-1.82
2019-01-14T09:11:43.373Z,-1.83
2019-01-14T09:15:44.481Z,-1.89
2019-01-14T09:19:45.502Z,-2.00
2019-01-14T09:23:46.467Z,-1.95
2019-01-14T09:27:47.542Z,-2.09
2019-01-14T09:31:48.727Z,-2.13
2019-01-14T09:35:50.203Z,-2.24
2019-01-14T09:39:51.457Z,-2.29
2019-01-14T09:43:52.639Z,-2.34
2019-01-14T09:47:53.683Z,-2.50
2019-01-14T09:51:54.711Z,-2.53
2019-01-14T09:55:55.697Z,-2.62
2019-01-14T09:59:56.742Z,-2.62
2019-01-14T10:03:58.258Z,-2.58
2019-01-14T10:07:59.264Z,-2.46
2019-01-14T10:12:00.283Z,-2.50
2019-01-14T10:16:01.338Z,-2.45
2019-01-14T10:20:02.619Z,-2.37
2019-01-14T10:24:03.760Z,-2.34
2019-01-14T10:28:04.733Z,-2.32
2019-01-14T10:32:05.768Z,-2.38
2019-01-14T10:36:07.098Z,-2.29
2019-01-14T10:40:10.572Z,-2.33
2019-01-14T10:44:11.559Z,-2.40
2019-01-14T10:48:12.591Z,-2.35
2019-01-14T10:52:13.669Z,-2.35
2019-01-14T10:56:14.769Z,-2.25
2019-01-14T11:00:18.692Z,-2.14
2019-01-14T11:04:19.817Z,-2.08
2019-01-14T11:08:20.814Z,-2.03
2019-01-14T11:12:21.953Z,-2.08
2019-01-14T11:16:23.403Z,-2.26
2019-01-14T11:20:29.795Z,-2.26
2019-01-14T11:24:50.088Z,-2.41
2019-01-14T11:28:51.175Z,-2.49
2019-01-14T11:32:52.174Z,-2.68
2019-01-14T11:36:53.190Z,-2.81
2019-01-14T11:40:54.150Z,-2.86
2019-01-14T11:44:55.313Z,-2.87
2019-01-14T11:48:57.419Z,-2.89
2019-01-14T11:52:58.425Z,-3.03
2019-01-14T11:56:59.418Z,-3.08
2019-01-14T12:01:00.471Z,-3.12
2019-01-14T12:05:01.630Z,-3.18
2019-01-14T12:09:03.284Z,-3.21
2019-01-14T12:13:05.912Z,-3.26
2019-01-14T12:17:07.037Z,-3.34
2019-01-14T12:21:08.012Z,-3.32
2019-01-14T12:25:09.323Z,-3.36
2019-01-14T12:29:10.291Z,-3.44
2019-01-14T12:33:11.333Z,-3.43
2019-01-14T12:37:12.311Z,-3.41
2019-01-14T12:41:13.482Z,-3.39
2019-01-14T12:45:14.511Z,-3.44
2019-01-14T12:49:15.637Z,-3.47
2019-01-14T12:53:16.572Z,-3.46
2019-01-14T12:57:17.673Z,-3.46
2019-01-14T13:01:18.923Z,-3.51
2019-01-14T13:05:20.398Z,-3.48
2019-01-14T13:09:26.703Z,-3.46
2019-01-14T13:13:24.529Z,-3.51
2019-01-14T13:17:25.641Z,-3.53
2019-01-14T13:21:26.986Z,-3.52
2019-01-14T13:25:27.984Z,-3.55
2019-01-14T13:29:29.087Z,-3.56
2019-01-14T13:33:30.097Z,-3.54
2019-01-14T13:37:31.089Z,-3.55
2019-01-14T13:41:32.054Z,-3.59
2019-01-14T13:45:33.040Z,-3.59
2019-01-14T13:49:34.008Z,-3.57
2019-01-14T13:53:35.418Z,-3.64
2019-01-14T13:57:36.871Z,-3.65
2019-01-14T14:01:38.111Z,-3.73
2019-01-14T14:05:39.336Z,-3.74
2019-01-14T14:09:41.318Z,-3.72
2019-01-14T14:13:42.904Z,-3.75
2019-01-14T14:17:43.936Z,-3.79
2019-01-14T14:21:44.921Z,-3.78
2019-01-14T14:25:46.086Z,-3.83
2019-01-14T14:29:47.056Z,-3.87
2019-01-14T14:33:48.088Z,-3.93
2019-01-14T14:37:49.135Z,-3.91
2019-01-14T14:41:51.348Z,-3.94
2019-01-14T14:45:52.299Z,-3.95
2019-01-14T14:49:53.301Z,-4.00
2019-01-14T14:53:54.442Z,-4.04
2019-01-14T14:58:00.417Z,-4.08
2019-01-14T15:02:01.389Z,-4.12
2019-01-14T15:06:02.572Z,-4.21
2019-01-14T15:10:03.766Z,-4.30
2019-01-14T15:14:05.014Z,-4.36
2019-01-14T15:18:05.982Z,-4.39
2019-01-14T15:22:07.016Z,-4.47
2019-01-14T15:26:08.199Z,-4.57
2019-01-14T15:30:15.869Z,-4.67
2019-01-14T15:34:16.962Z,-4.85
2019-01-14T15:38:18.027Z,-4.78
2019-01-14T15:42:19.009Z,-4.79
2019-01-14T15:46:20.051Z,-4.84
2019-01-14T15:50:21.213Z,-5.12
2019-01-14T15:54:22.236Z,-5.23
2019-01-14T15:58:23.202Z,-5.41
2019-01-14T16:02:24.572Z,-5.67
2019-01-14T16:06:25.543Z,-5.57
2019-01-14T16:10:27.746Z,-5.39
2019-01-14T16:14:28.752Z,-5.44
2019-01-14T16:18:29.872Z,-5.52
2019-01-14T16:22:30.898Z,-5.64
2019-01-14T16:26:31.950Z,-5.56
2019-01-14T16:30:32.906Z,-5.77
2019-01-14T16:34:34.102Z,-5.79
2019-01-14T16:38:35.103Z,-5.99
2019-01-14T16:42:36.192Z,-6.01
2019-01-14T16:46:37.169Z,-6.05
2019-01-14T16:50:38.192Z,-6.16
2019-01-14T16:54:39.273Z,-6.29
2019-01-14T16:58:40.308Z,-6.30
2019-01-14T17:02:41.267Z,-6.35
2019-01-14T17:06:43.621Z,-6.22
2019-01-14T17:10:44.643Z,-6.15
2019-01-14T17:14:45.752Z,-6.15
2019-01-14T17:18:46.717Z,-6.07
2019-01-14T17:22:47.736Z,-5.81
2019-01-14T17:26:48.739Z,-5.90
2019-01-14T17:30:49.794Z,-6.02
2019-01-14T17:34:50.727Z,-6.28
2019-01-14T17:38:51.797Z,-6.41
2019-01-14T17:42:52.858Z,-6.21
2019-01-14T17:46:54.061Z,-5.99
2019-01-14T17:50:55.036Z,-5.88
2019-01-14T17:54:56.077Z,-6.09
2019-01-14T17:58:57.006Z,-6.22
2019-01-14T18:02:58.146Z,-6.30
2019-01-14T18:06:59.515Z,-6.51
2019-01-14T18:11:02.060Z,-6.43
2019-01-14T18:15:03.163Z,-6.69
2019-01-14T18:19:04.378Z,-7.01
2019-01-14T18:23:06.647Z,-7.01
2019-01-14T18:27:07.776Z,-6.83
2019-01-14T18:31:08.791Z,-6.57
2019-01-14T18:35:09.853Z,-6.34
2019-01-14T18:39:10.868Z,-6.10
2019-01-14T18:43:12.132Z,-5.87
2019-01-14T18:47:13.195Z,-5.79
2019-01-14T18:51:14.196Z,-5.72
2019-01-14T18:55:15.144Z,-5.72
2019-01-14T18:59:16.595Z,-5.62
2019-01-14T19:03:17.544Z,-5.58
2019-01-14T19:07:18.916Z,-5.58
2019-01-14T19:11:19.952Z,-5.56
2019-01-14T19:15:22.122Z,-5.47
2019-01-14T19:19:23.197Z,-5.40
2019-01-14T19:23:24.252Z,-5.38
2019-01-14T19:27:25.239Z,-5.30
2019-01-14T19:31:26.299Z,-5.31
2019-01-14T19:35:27.291Z,-5.28
2019-01-14T19:39:28.326Z,-5.26
2019-01-14T19:43:29.306Z,-5.32
2019-01-14T19:47:30.554Z,-5.31
2019-01-14T19:51:31.557Z,-5.36
2019-01-14T19:55:33.617Z,-5.44
2019-01-14T19:59:35.127Z,-5.64
2019-01-14T20:03:36.194Z,-5.84
2019-01-14T20:07:37.178Z,-6.06
2019-01-14T20:11:38.785Z,-6.35
2019-01-14T20:15:39.812Z,-6.67
2019-01-14T20:19:41.108Z,-7.01
2019-01-14T20:23:42.250Z,-7.26
2019-01-14T20:27:43.254Z,-7.31
2019-01-14T20:31:44.250Z,-7.49
2019-01-14T20:35:45.385Z,-7.82
2019-01-14T20:39:46.396Z,-7.95
2019-01-14T20:43:47.616Z,-8.08
2019-01-14T20:47:48.602Z,-8.27
2019-01-14T20:51:49.658Z,-8.37
2019-01-14T20:55:50.649Z,-8.45
2019-01-14T20:59:51.665Z,-8.58
2019-01-14T21:03:52.639Z,-8.68
2019-01-14T21:07:53.674Z,-8.68
2019-01-14T21:11:54.698Z,-8.76
2019-01-14T21:16:02.557Z,-8.72
2019-01-14T21:19:58.414Z,-8.82
2019-01-14T21:23:59.657Z,-8.85
2019-01-14T21:28:00.874Z,-9.06
2019-01-14T21:32:02.958Z,-9.20
2019-01-14T21:36:04.499Z,-9.32
2019-01-14T21:40:06.121Z,-9.39
2019-01-14T21:44:07.578Z,-9.55
2019-01-14T21:48:16.945Z,-9.71
2019-01-14T21:52:12.374Z,-9.79
2019-01-14T21:56:13.643Z,-9.96
2019-01-14T22:00:16.979Z,-10.12
2019-01-14T22:04:18.530Z,-10.12
2019-01-14T22:08:20.025Z,-10.15
2019-01-14T22:12:21.161Z,-10.09
2019-01-14T22:16:22.224Z,-10.01
2019-01-14T22:20:28.359Z,-10.07
2019-01-14T22:24:31.136Z,-10.10
2019-01-14T22:28:32.367Z,-10.15
2019-01-14T22:32:33.403Z,-10.07
2019-01-14T22:36:34.394Z,-10.07
2019-01-14T22:40:35.377Z,-9.98
2019-01-14T22:44:36.390Z,-9.82
2019-01-14T22:48:37.340Z,-9.84
2019-01-14T22:52:38.513Z,-9.84
2019-01-14T22:56:40.028Z,-9.92
2019-01-14T23:01:19.417Z,-10.05
2019-01-14T23:05:20.913Z,-9.98
2019-01-14T23:09:21.932Z,-10.05
2019-01-14T23:13:23.437Z,-10.17
2019-01-14T23:17:25.412Z,-10.03
2019-01-14T23:21:26.362Z,-9.90
2019-01-14T23:25:29.679Z,-9.75
2019-01-14T23:29:30.817Z,-9.53
2019-01-14T23:33:31.917Z,-9.33
2019-01-14T23:37:32.905Z,-9.18
2019-01-14T23:41:34.508Z,-9.20
2019-01-14T23:45:35.677Z,-9.25
2019-01-14T23:49:38.459Z,-9.00
2019-01-14T23:53:39.641Z,-8.84
2019-01-14T23:57:40.665Z,-8.27
